Time;durP1;ratioP1;P1;durP2;ratioP2;P2;SDS_P1;SDS_P2;PMS_P1;PMS_P2;Temp;Humidity;BMP_temperature;BMP_pressure;BME280_temperature;BME280_humidity;BME280_pressure;Samples;Min_cycle;Max_cycle;Signal;HPM_P1;HPM_P2
2022/09/11 00:00:34;;;;;;;25.83;15.50;;;;;;;22.26;100.00;100263.63;5056673;28;20100;-82
2022/09/11 00:03:00;;;;;;;31.60;13.20;;;;;;;22.22;100.00;100265.94;5063319;28;20024;-81
2022/09/11 00:05:26;;;;;;;25.60;14.80;;;;;;;22.33;100.00;100269.09;5076296;28;20025;-82
2022/09/11 00:07:51;;;;;;;17.60;12.65;;;;;;;22.24;100.00;100268.47;5076543;28;20016;-81
2022/09/11 00:10:17;;;;;;;19.52;13.95;;;;;;;22.14;100.00;100254.31;5058307;28;20075;-83
2022/09/11 00:12:43;;;;;;;18.77;13.98;;;;;;;22.12;100.00;100257.28;5056565;28;20029;-82
2022/09/11 00:15:10;;;;;;;22.02;14.95;;;;;;;22.15;100.00;100266.97;5055865;28;20053;-83
2022/09/11 00:17:36;;;;;;;21.05;13.40;;;;;;;22.17;100.00;100262.13;5055071;28;20107;-82
2022/09/11 00:20:03;;;;;;;26.98;14.70;;;;;;;22.20;100.00;100286.34;5055794;28;20119;-81
2022/09/11 00:22:29;;;;;;;24.13;14.77;;;;;;;22.20;100.00;100268.03;5055934;28;20029;-81
2022/09/11 00:24:54;;;;;;;23.42;14.75;;;;;;;22.18;100.00;100278.34;5056088;28;20032;-81
2022/09/11 00:27:20;;;;;;;21.83;15.02;;;;;;;22.18;100.00;100277.50;5055946;28;20040;-82
2022/09/11 00:29:45;;;;;;;23.20;16.75;;;;;;;22.21;100.00;100272.47;5055830;28;20025;-82
2022/09/11 00:32:11;;;;;;;28.05;15.65;;;;;;;22.19;100.00;100273.72;5063823;28;20458;-82
2022/09/11 00:34:38;;;;;;;23.02;16.38;;;;;;;22.16;100.00;100287.84;5074659;28;20103;-83
2022/09/11 00:37:03;;;;;;;23.95;17.42;;;;;;;22.14;100.00;100276.22;5075584;28;20051;-82
2022/09/11 00:39:29;;;;;;;25.13;18.38;;;;;;;22.11;100.00;100271.16;5065286;28;20044;-82
2022/09/11 00:41:54;;;;;;;27.58;17.55;;;;;;;22.15;100.00;100269.72;5059006;28;20075;-82
2022/09/11 00:44:23;;;;;;;29.20;18.20;;;;;;;22.12;100.00;100281.94;5055703;28;20059;-83
2022/09/11 00:46:58;;;;;;;31.40;19.60;;;;;;;22.03;100.00;100271.38;5055678;28;20483;-82
2022/09/11 00:49:35;;;;;;;33.17;22.60;;;;;;;22.13;100.00;100285.53;5055634;28;20025;-83
2022/09/11 00:52:16;;;;;;;38.88;24.10;;;;;;;22.11;100.00;100282.97;5055342;28;20512;-82
2022/09/11 00:54:48;;;;;;;51.45;28.08;;;;;;;22.07;100.00;100270.75;5054975;28;20483;-82
2022/09/11 00:57:15;;;;;;;44.15;29.85;;;;;;;22.12;100.00;100273.72;5055055;28;20107;-83
2022/09/11 00:59:43;;;;;;;42.80;30.92;;;;;;;22.13;100.00;100285.53;5054946;28;20103;-82
2022/09/11 01:02:12;;;;;;;46.90;32.40;;;;;;;22.11;100.00;100280.22;5064863;28;20103;-83
2022/09/11 01:04:38;;;;;;;52.10;32.78;;;;;;;22.05;100.00;100272.00;5075220;28;20356;-82
2022/09/11 01:07:04;;;;;;;48.53;34.05;;;;;;;22.09;100.00;100278.75;5075304;28;20482;-82
2022/09/11 01:09:32;;;;;;;53.10;35.17;;;;;;;22.04;100.00;100276.66;5075156;28;20028;-83
2022/09/11 01:12:18;;;;;;;51.75;34.67;;;;;;;21.99;100.00;100278.31;5073479;28;20119;-83
2022/09/11 01:15:04;;;;;;;43.80;32.33;;;;;;;21.95;100.00;100272.44;5054885;28;20099;-83
2022/09/11 01:17:35;;;;;;;49.28;32.47;;;;;;;21.98;100.00;100271.16;5055242;28;20100;-83
2022/09/11 01:20:31;;;;;;;46.25;33.83;;;;;;;22.03;100.00;100263.16;5053937;28;20059;-83
2022/09/11 01:23:09;;;;;;;40.25;31.67;;;;;;;21.91;100.00;100242.91;5034922;28;20033;-84
2022/09/11 01:25:55;;;;;;;47.60;32.53;;;;;;;21.93;100.00;100252.59;5035007;28;20098;-83
2022/09/11 01:28:29;;;;;;;47.25;33.58;;;;;;;21.85;100.00;100255.50;5035090;28;20024;-84
2022/09/11 01:31:01;;;;;;;38.78;30.30;;;;;;;21.88;100.00;100248.78;5035144;28;20028;-83
2022/09/11 01:33:59;;;;;;;45.75;32.50;;;;;;;21.90;100.00;100257.66;5035036;28;20028;-84
2022/09/11 01:36:31;;;;;;;48.55;32.80;;;;;;;21.92;100.00;100270.09;5034036;28;20024;-83
2022/09/11 01:38:59;;;;;;;;;;;;;;;21.95;100.00;100271.59;5035282;28;20876;-84
2022/09/11 01:41:34;;;;;;;48.30;30.45;;;;;;;21.91;100.00;100273.03;5035105;28;19915;-84
2022/09/11 01:44:06;;;;;;;49.65;32.40;;;;;;;21.79;100.00;100250.00;5033574;28;20036;-86
2022/09/11 01:46:43;;;;;;;41.45;28.27;;;;;;;21.88;100.00;100254.25;5035134;28;20032;-86
2022/09/11 01:49:14;;;;;;;39.92;28.25;;;;;;;21.90;100.00;100255.75;5034988;28;20425;-87
2022/09/11 01:51:40;;;;;;;45.30;29.60;;;;;;;21.86;100.00;100253.63;5035835;28;20122;-88
2022/09/11 01:54:22;;;;;;;36.38;27.42;;;;;;;21.82;100.00;100244.13;5034863;28;20036;-89
2022/09/11 01:56:54;;;;;;;35.40;28.48;;;;;;;21.80;100.00;100243.50;5034849;28;20025;-90
2022/09/11 01:59:30;;;;;;;38.33;28.30;;;;;;;21.84;100.00;100250.22;5034336;28;20073;-90
2022/09/11 02:02:08;;;;;;;39.03;27.83;;;;;;;21.91;100.00;100248.38;5034688;28;20021;-91
2022/09/11 02:04:48;;;;;;;40.40;29.55;;;;;;;21.90;100.00;100236.59;5034207;28;20032;-91
2022/09/11 02:07:30;;;;;;;38.05;27.45;;;;;;;21.89;100.00;100218.50;5033696;28;20025;-92
2022/09/11 02:10:01;;;;;;;33.95;26.50;;;;;;;22.04;100.00;100237.47;5038586;28;20022;-90
2022/09/11 02:12:39;;;;;;;34.57;23.90;;;;;;;21.98;100.00;100217.25;5035000;28;20057;-90
2022/09/11 02:15:07;;;;;;;31.90;23.70;;;;;;;22.00;100.00;100223.34;5033316;28;20128;-89
2022/09/11 02:17:44;;;;;;;35.97;24.13;;;;;;;21.94;100.00;100204.16;5035421;28;20067;-89
2022/09/11 02:20:10;;;;;;;31.88;23.60;;;;;;;21.85;100.00;100202.63;5034385;28;20029;-89
2022/09/11 02:22:36;;;;;;;33.33;24.48;;;;;;;21.90;100.00;100211.09;5034249;28;20021;-87
2022/09/11 02:25:02;;;;;;;32.97;25.23;;;;;;;21.94;100.00;100221.44;5034859;28;20029;-86
2022/09/11 02:27:30;;;;;;;40.40;26.25;;;;;;;21.81;100.00;100231.47;5033881;28;20029;-85
2022/09/11 02:29:57;;;;;;;33.08;26.60;;;;;;;21.71;100.00;100219.03;5033720;28;20029;-85
2022/09/11 02:32:24;;;;;;;32.92;28.38;;;;;;;21.89;100.00;100239.53;5033729;28;20028;-85
2022/09/11 02:34:54;;;;;;;39.13;28.60;;;;;;;22.01;100.00;100237.88;5033776;28;20418;-84
2022/09/11 02:37:50;;;;;;;37.40;28.17;;;;;;;22.04;100.00;100237.47;5033617;28;20034;-84
2022/09/11 02:40:26;;;;;;;39.38;27.30;;;;;;;22.05;100.00;100225.44;5033592;28;20025;-84
2022/09/11 02:43:24;;;;;;;40.72;28.88;;;;;;;21.91;100.00;100201.84;5033635;28;20025;-84
2022/09/11 02:46:25;;;;;;;36.38;27.77;;;;;;;22.01;100.00;100214.09;5034027;28;20033;-83
2022/09/11 02:49:12;;;;;;;39.95;26.75;;;;;;;22.06;100.00;100218.91;5032366;28;20100;-84
2022/09/11 02:51:59;;;;;;;41.63;27.33;;;;;;;22.08;100.00;100228.59;5066878;28;20187;-83
2022/09/11 02:54:52;;;;;;;43.33;29.33;;;;;;;21.94;100.00;100209.63;5073639;28;20027;-84
2022/09/11 02:57:29;;;;;;;39.78;28.08;;;;;;;22.00;100.00;100217.00;5072790;28;20973;-84
2022/09/11 03:00:00;;;;;;;36.10;28.33;;;;;;;21.89;100.00;100207.53;5073222;28;20111;-82
2022/09/11 03:02:30;;;;;;;43.10;32.37;;;;;;;21.90;100.00;100214.69;5057905;28;20029;-83
2022/09/11 03:04:56;;;;;;;43.28;30.15;;;;;;;22.00;100.00;100226.09;5053211;28;20025;-82
2022/09/11 03:07:24;;;;;;;40.72;29.25;;;;;;;22.03;100.00;100230.28;5053091;28;20021;-83
2022/09/11 03:09:50;;;;;;;38.08;26.10;;;;;;;21.93;100.00;100210.69;5052767;28;20085;-83
2022/09/11 03:12:15;;;;;;;35.05;28.25;;;;;;;22.06;100.00;100229.88;5053018;28;20025;-83
2022/09/11 03:14:41;;;;;;;40.88;26.90;;;;;;;22.05;100.00;100228.19;5052946;28;20048;-83
2022/09/11 03:17:06;;;;;;;38.78;27.08;;;;;;;22.07;99.99;100242.53;5067622;28;20032;-82
2022/09/11 03:19:32;;;;;;;38.83;28.10;;;;;;;22.02;99.70;100231.34;5073635;28;20020;-82
2022/09/11 03:21:57;;;;;;;33.15;26.80;;;;;;;22.11;99.41;100250.09;5070288;28;20099;-82
2022/09/11 03:24:23;;;;;;;33.40;25.80;;;;;;;22.15;99.43;100253.28;5052971;28;20463;-83
2022/09/11 03:26:48;;;;;;;32.47;23.35;;;;;;;22.14;99.26;100251.56;5051816;28;20130;-84
2022/09/11 03:29:14;;;;;;;40.00;24.67;;;;;;;22.09;99.00;100246.75;5052956;28;20028;-84
2022/09/11 03:31:39;;;;;;;39.85;23.65;;;;;;;22.07;98.72;100239.78;5061924;28;20047;-82
2022/09/11 03:34:05;;;;;;;42.28;26.02;;;;;;;22.05;98.44;100247.34;5065185;28;20032;-84
2022/09/11 03:36:33;;;;;;;33.08;25.02;;;;;;;22.04;98.39;100249.28;5052949;28;20080;-83
2022/09/11 03:38:58;;;;;;;32.95;23.40;;;;;;;22.03;98.08;100258.53;5054704;28;20056;-83
2022/09/11 03:41:24;;;;;;;36.72;25.88;;;;;;;22.04;98.44;100251.16;5052778;28;20422;-83
2022/09/11 03:43:50;;;;;;;40.90;26.08;;;;;;;22.03;98.46;100257.69;5050656;28;20120;-84
2022/09/11 03:46:16;;;;;;;31.77;25.83;;;;;;;22.05;98.61;100261.91;5051994;28;20031;-83
2022/09/11 03:48:44;;;;;;;32.13;25.05;;;;;;;21.99;99.17;100253.66;5052358;28;20025;-83
2022/09/11 03:51:10;;;;;;;29.23;23.33;;;;;;;21.93;98.96;100249.00;5066655;28;20067;-82
2022/09/11 03:53:37;;;;;;;37.92;23.40;;;;;;;21.88;98.74;100244.19;5072828;28;20028;-87
2022/09/11 03:56:05;;;;;;;27.55;22.65;;;;;;;22.07;98.08;100269.91;5052560;28;20024;-84
2022/09/11 03:58:30;;;;;;;26.70;19.48;;;;;;;22.05;97.38;100272.00;5052760;28;20379;-85
2022/09/11 04:00:56;;;;;;;31.75;19.77;;;;;;;21.93;97.35;100246.28;5056445;28;20086;-86
2022/09/11 04:03:21;;;;;;;39.65;19.52;;;;;;;21.94;97.28;100253.44;5056652;28;20032;-87
2022/09/11 04:05:58;;;;;;;33.50;19.38;;;;;;;22.00;96.76;100264.44;5056214;28;20387;-83
2022/09/11 04:08:24;;;;;;;33.03;20.40;;;;;;;21.95;96.86;100260.63;5055457;28;20028;-82
2022/09/11 04:10:56;;;;;;;29.30;19.98;;;;;;;22.00;96.96;100269.06;5056014;28;20029;-82
2022/09/11 04:13:26;;;;;;;33.10;18.77;;;;;;;21.91;96.71;100259.34;5055756;28;20105;-81
2022/09/11 04:15:51;;;;;;;26.55;19.70;;;;;;;21.91;97.38;100265.66;5055936;28;20263;-82
2022/09/11 04:18:17;;;;;;;30.52;19.85;;;;;;;21.84;97.54;100250.22;5055694;28;20021;-83
2022/09/11 04:20:42;;;;;;;27.10;19.90;;;;;;;21.99;97.42;100259.97;5056018;28;20017;-83
2022/09/11 04:23:08;;;;;;;26.40;18.17;;;;;;;21.97;97.66;100264.00;5055737;28;20021;-81
2022/09/11 04:25:33;;;;;;;36.00;18.55;;;;;;;21.96;97.16;100259.56;5056308;28;20025;-80
2022/09/11 04:27:58;;;;;;;30.55;18.77;;;;;;;21.90;96.07;100252.16;5071280;28;20402;-81
2022/09/11 04:30:24;;;;;;;23.42;18.63;;;;;;;21.83;95.75;100259.50;5055893;28;20047;-81
2022/09/11 04:32:49;;;;;;;27.23;18.02;;;;;;;21.85;96.29;100254.66;5055334;28;20114;-81
2022/09/11 04:35:15;;;;;;;73.13;21.10;;;;;;;21.75;97.13;100257.78;5055482;28;20016;-81
2022/09/11 04:37:40;;;;;;;34.05;20.40;;;;;;;21.83;97.79;100256.78;5055371;28;20017;-81
2022/09/11 04:40:07;;;;;;;37.10;19.08;;;;;;;21.82;97.65;100255.06;5057072;28;20021;-79
2022/09/11 04:42:32;;;;;;;31.92;19.65;;;;;;;21.88;97.37;100265.19;5075045;28;20028;-81
2022/09/11 04:44:57;;;;;;;31.60;21.60;;;;;;;21.90;97.50;100260.38;5074985;28;20206;-80
2022/09/11 04:47:23;;;;;;;25.55;19.40;;;;;;;21.96;96.98;100263.13;5074981;28;20070;-80
2022/09/11 04:49:48;;;;;;;35.30;21.27;;;;;;;21.97;97.08;100275.78;5074930;28;20086;-81
2022/09/11 04:52:14;;;;;;;31.45;20.48;;;;;;;21.96;97.04;100273.25;5075288;28;20025;-80
2022/09/11 04:54:40;;;;;;;31.40;17.90;;;;;;;21.98;96.94;100272.00;5075225;28;20019;-81
2022/09/11 04:57:05;;;;;;;30.42;18.63;;;;;;;21.95;95.37;100260.63;5074924;28;20028;-81
2022/09/11 04:59:30;;;;;;;29.02;18.10;;;;;;;21.88;94.68;100259.72;5074744;28;20111;-80
2022/09/11 05:01:56;;;;;;;27.33;16.80;;;;;;;21.92;94.31;100266.50;5074759;28;20463;-81
2022/09/11 05:04:22;;;;;;;32.55;17.10;;;;;;;21.78;94.04;100253.78;5075089;28;20918;-81
2022/09/11 05:06:47;;;;;;;98.95;21.48;;;;;;;21.76;94.12;100258.63;5075391;28;20025;-81
2022/09/11 05:09:15;;;;;;;28.73;16.83;;;;;;;21.88;94.43;100274.28;5069018;28;20036;-80
2022/09/11 05:11:40;;;;;;;31.27;17.40;;;;;;;21.86;94.22;100267.31;5054187;28;20025;-81
2022/09/11 05:14:07;;;;;;;34.38;17.67;;;;;;;21.75;93.61;100255.06;5055471;28;20056;-82
2022/09/11 05:16:34;;;;;;;32.67;16.35;;;;;;;21.84;93.11;100261.19;5056079;28;20111;-82
2022/09/11 05:19:01;;;;;;;36.28;18.10;;;;;;;21.81;93.15;100259.69;5055998;28;20032;-80
2022/09/11 05:21:27;;;;;;;46.33;17.80;;;;;;;21.80;93.14;100259.91;5055603;28;20025;-81
2022/09/11 05:23:54;;;;;;;23.02;17.33;;;;;;;21.83;92.42;100262.25;5062766;28;20024;-80
2022/09/11 05:26:23;;;;;;;24.95;15.75;;;;;;;21.78;91.78;100253.78;5075337;28;20024;-82
2022/09/11 05:29:03;;;;;;;32.83;16.67;;;;;;;21.84;91.32;100266.66;5075477;28;20495;-80
2022/09/11 05:31:30;;;;;;;28.10;15.05;;;;;;;21.80;90.25;100254.44;5075407;28;20056;-80
2022/09/11 05:33:57;;;;;;;21.30;14.15;;;;;;;21.87;89.62;100256.13;5075309;28;20024;-80
2022/09/11 05:36:24;;;;;;;22.52;14.40;;;;;;;21.82;89.65;100255.06;5074815;28;20028;-80
2022/09/11 05:38:49;;;;;;;21.00;14.43;;;;;;;21.70;89.86;100231.03;5073928;28;20078;-80
2022/09/11 05:41:16;;;;;;;34.65;14.82;;;;;;;21.78;90.33;100229.16;5074506;28;20024;-80
2022/09/11 05:43:42;;;;;;;24.17;14.95;;;;;;;21.84;90.06;100259.28;5074563;28;20111;-80
2022/09/11 05:46:14;;;;;;;51.60;15.93;;;;;;;21.82;89.55;100255.06;5074366;28;20111;-79
2022/09/11 05:48:40;;;;;;;32.25;16.00;;;;;;;21.85;89.07;100257.41;5074785;28;20031;-79
2022/09/11 05:51:14;;;;;;;31.77;15.32;;;;;;;21.88;89.07;100244.19;5074518;28;20034;-78
2022/09/11 05:53:40;;;;;;;27.58;13.88;;;;;;;21.88;88.17;100246.03;5059350;28;20040;-80
2022/09/11 05:56:20;;;;;;;22.98;12.57;;;;;;;21.89;87.47;100254.09;5055435;28;20029;-80
2022/09/11 05:58:47;;;;;;;22.70;11.95;;;;;;;21.96;86.86;100254.06;5055753;28;20033;-79
2022/09/11 06:01:15;;;;;;;24.75;11.95;;;;;;;21.88;85.99;100243.28;5074299;28;20024;-80
2022/09/11 06:03:40;;;;;;;25.38;11.85;;;;;;;21.88;85.87;100255.13;5074574;28;20374;-79
2022/09/11 06:06:08;;;;;;;32.40;11.27;;;;;;;21.97;85.20;100256.63;5074077;28;20046;-81
2022/09/11 06:08:34;;;;;;;23.33;14.32;;;;;;;21.98;85.34;100250.09;5074456;28;20030;-81
2022/09/11 06:11:01;;;;;;;25.75;11.85;;;;;;;22.07;84.30;100253.47;5075324;28;20093;-79
2022/09/11 06:13:32;;;;;;;20.58;10.32;;;;;;;22.01;84.11;100246.09;5074107;28;20055;-80
2022/09/11 06:15:58;;;;;;;21.33;11.27;;;;;;;22.01;84.04;100254.31;5074295;28;20024;-79
2022/09/11 06:18:24;;;;;;;72.85;13.68;;;;;;;22.03;84.07;100239.34;5062798;28;20152;-79
2022/09/11 06:21:00;;;;;;;17.27;10.07;;;;;;;22.11;84.13;100252.00;5053864;28;20438;-78
2022/09/11 06:23:26;;;;;;;57.03;13.73;;;;;;;22.11;84.07;100243.78;5053240;28;20025;-79
2022/09/11 06:25:55;;;;;;;19.23;10.50;;;;;;;22.15;84.25;100239.56;5053838;28;20036;-79
2022/09/11 06:28:22;;;;;;;14.23;9.55;;;;;;;22.04;83.89;100229.25;5052795;28;20031;-80
2022/09/11 06:30:51;;;;;;;37.80;11.40;;;;;;;22.18;83.21;100234.53;5051154;28;20060;-79
2022/09/11 06:33:20;;;;;;;23.65;9.88;;;;;;;22.27;83.49;100246.13;5053590;28;20057;-81
2022/09/11 06:36:25;;;;;;;23.08;9.07;;;;;;;22.20;82.66;100237.88;5055506;28;20031;-89
2022/09/11 06:38:55;;;;;;;16.20;8.07;;;;;;;22.29;82.18;100252.25;5055250;28;20090;-87
2022/09/11 06:41:21;;;;;;;18.83;7.22;;;;;;;22.35;81.65;100256.91;5054390;28;20047;-80
2022/09/11 06:43:48;;;;;;;12.55;6.38;;;;;;;22.40;79.71;100250.75;5058132;28;20030;-81
2022/09/11 06:46:17;;;;;;;28.48;9.00;;;;;;;22.40;78.70;100242.53;5052669;28;20025;-83
2022/09/11 06:48:44;;;;;;;32.70;9.27;;;;;;;22.49;79.69;100247.59;5054750;28;20032;-83
2022/09/11 06:51:15;;;;;;;19.70;8.68;;;;;;;22.58;78.60;100254.56;5064177;28;20119;-84
2022/09/11 06:53:42;;;;;;;46.42;8.68;;;;;;;22.65;77.97;100258.19;5075320;28;20523;-82
2022/09/11 06:56:13;;;;;;;11.32;7.63;;;;;;;22.67;77.79;100261.56;5075068;28;20504;-82
2022/09/11 06:58:40;;;;;;;19.60;6.80;;;;;;;22.75;76.69;100263.25;5073818;28;20043;-82
2022/09/11 07:01:10;;;;;;;11.85;6.25;;;;;;;22.78;76.76;100269.13;5065973;28;20453;-84
2022/09/11 07:03:38;;;;;;;12.23;7.50;;;;;;;22.91;76.87;100257.28;5055310;28;20489;-87
2022/09/11 07:06:05;;;;;;;25.17;7.72;;;;;;;23.02;76.21;100270.38;5067175;28;20036;-95
2022/09/11 07:08:30;;;;;;;18.15;7.82;;;;;;;23.04;75.99;100256.44;5077360;28;20028;-88
2022/09/11 07:11:03;;;;;;;21.70;7.38;;;;;;;23.20;75.18;100266.94;5056915;28;20036;-93
2022/09/11 07:13:30;;;;;;;77.70;10.65;;;;;;;23.21;74.56;100263.97;5055311;28;20132;-89
2022/09/11 07:16:03;;;;;;;18.52;6.28;;;;;;;23.20;73.85;100245.84;5066843;28;20478;-90
2022/09/11 07:18:38;;;;;;;9.93;5.75;;;;;;;23.38;72.47;100264.34;5068795;28;20036;-88
2022/09/11 07:21:10;;;;;;;15.23;5.63;;;;;;;23.35;71.21;100259.31;5054478;28;20040;-85
2022/09/11 07:23:36;;;;;;;9.93;5.25;;;;;;;23.38;69.59;100258.03;5054195;28;20020;-86
2022/09/11 07:26:07;;;;;;;15.50;5.63;;;;;;;23.48;69.49;100264.78;5053452;28;20055;-86
2022/09/11 07:28:33;;;;;;;17.30;5.77;;;;;;;23.53;68.56;100264.97;5052813;28;20045;-87
2022/09/11 07:31:21;;;;;;;12.30;5.13;;;;;;;23.68;68.44;100276.50;5053309;28;20100;-89
2022/09/11 07:33:47;;;;;;;20.38;4.90;;;;;;;23.67;68.47;100258.34;5053434;28;20028;-84
2022/09/11 07:36:19;;;;;;;11.73;4.75;;;;;;;23.87;66.86;100284.88;5057286;28;20922;-89
2022/09/11 07:38:46;;;;;;;11.15;5.65;;;;;;;23.88;66.37;100283.81;5057763;28;20029;-88
2022/09/11 07:41:13;;;;;;;13.10;5.00;;;;;;;23.80;66.43;100274.75;5058194;28;20456;-91
2022/09/11 07:43:49;;;;;;;17.00;5.10;;;;;;;23.98;66.82;100285.00;5056007;28;20383;-87
2022/09/11 07:46:15;;;;;;;9.52;5.63;;;;;;;23.89;65.46;100256.13;5058047;28;20024;-88
2022/09/11 07:48:44;;;;;;;31.55;6.95;;;;;;;24.03;64.95;100273.38;5057030;28;20020;-87
2022/09/11 07:51:12;;;;;;;6.75;4.53;;;;;;;24.14;64.96;100278.19;5057096;28;20557;-91
2022/09/11 07:53:42;;;;;;;13.82;4.60;;;;;;;24.22;64.92;100283.41;5055889;28;20083;-88
2022/09/11 07:56:10;;;;;;;14.25;4.97;;;;;;;24.17;64.02;100278.59;5057048;28;20569;-91
2022/09/11 07:58:38;;;;;;;6.97;4.88;;;;;;;24.19;64.12;100273.69;5057033;28;20067;-89
2022/09/11 08:01:09;;;;;;;11.90;5.25;;;;;;;24.39;64.44;100292.81;5057776;28;20032;-89
2022/09/11 08:03:36;;;;;;;12.07;4.85;;;;;;;24.40;63.63;100275.28;5058223;28;20021;-90
2022/09/11 08:06:04;;;;;;;13.25;5.22;;;;;;;24.41;63.67;100263.19;5056911;28;20112;-89
2022/09/11 08:08:30;;;;;;;6.57;4.47;;;;;;;24.69;62.79;100288.34;5055983;28;20017;-88
2022/09/11 08:11:00;;;;;;;7.05;4.68;;;;;;;24.62;62.14;100257.28;5056736;28;20041;-87
2022/09/11 08:13:25;;;;;;;10.80;4.80;;;;;;;24.70;62.74;100258.94;5056827;28;20057;-88
2022/09/11 08:15:51;;;;;;;8.68;4.57;;;;;;;24.76;62.15;100256.13;5075245;28;20055;-88
2022/09/11 08:18:17;;;;;;;9.57;4.57;;;;;;;24.96;61.25;100268.84;5076574;28;20020;-87
2022/09/11 08:20:43;;;;;;;9.38;4.38;;;;;;;24.99;60.59;100268.41;5075936;28;20520;-88
2022/09/11 08:23:10;;;;;;;13.07;4.25;;;;;;;24.95;60.55;100246.03;5077102;28;20081;-88
2022/09/11 08:25:36;;;;;;;17.13;4.63;;;;;;;25.12;60.92;100258.09;5075127;28;20052;-86
2022/09/11 08:28:02;;;;;;;9.15;4.90;;;;;;;25.15;60.51;100254.91;5055327;28;20078;-88
2022/09/11 08:30:28;;;;;;;15.70;4.32;;;;;;;25.45;59.75;100280.59;5055788;28;20048;-93
2022/09/11 08:32:54;;;;;;;15.45;4.63;;;;;;;25.38;58.71;100252.28;5071729;28;20028;-90
2022/09/11 08:35:19;;;;;;;8.52;4.22;;;;;;;25.56;58.87;100270.78;5074948;28;20025;-87
2022/09/11 08:37:45;;;;;;;13.77;4.53;;;;;;;25.73;58.52;100277.31;5074997;28;20383;-86
2022/09/11 08:40:11;;;;;;;10.75;4.22;;;;;;;25.57;57.70;100222.00;5075659;28;20020;-86
2022/09/11 08:42:43;;;;;;;23.60;4.18;;;;;;;25.78;57.72;100246.31;5073558;28;20032;-92
2022/09/11 08:45:15;;;;;;;14.48;4.32;;;;;;;25.83;57.25;100246.47;5057837;28;20451;-87
2022/09/11 08:47:50;;;;;;;21.63;4.90;;;;;;;26.13;57.96;100262.97;5055838;28;20410;-89
2022/09/11 08:50:31;;;;;;;13.32;4.47;;;;;;;26.30;57.44;100247.47;5055252;28;20040;-91
2022/09/11 08:53:01;;;;;;;6.45;4.22;;;;;;;26.24;56.74;100218.06;5055732;28;20056;-84
2022/09/11 08:55:41;;;;;;;9.73;5.18;;;;;;;26.30;55.96;100209.72;5055886;28;20525;-88
2022/09/11 08:58:13;;;;;;;13.40;4.15;;;;;;;26.61;55.63;100247.16;5055298;28;20021;-85
2022/09/11 09:01:11;;;;;;;14.73;4.75;;;;;;;26.50;55.48;100224.03;5054554;28;20248;-88
2022/09/11 09:04:03;;;;;;;11.95;3.58;;;;;;;26.65;54.13;100237.34;5055844;28;20021;-89
2022/09/11 09:06:28;;;;;;;;;;;;;;;26.73;54.40;100245.25;5064868;28;20040;-82
2022/09/11 09:08:54;;;;;;;7.57;4.40;;;;;;;26.86;53.95;100239.53;5074435;28;20342;-82
2022/09/11 09:11:39;;;;;;;7.57;3.78;;;;;;;26.90;53.33;100232.47;5075764;28;20028;-91
2022/09/11 09:14:34;;;;;;;11.50;3.78;;;;;;;27.03;52.56;100232.19;5075691;28;20052;-88
2022/09/11 09:17:07;;;;;;;9.63;3.53;;;;;;;27.04;52.69;100205.44;5068376;28;20402;-89
2022/09/11 09:19:49;;;;;;;8.38;2.95;;;;;;;27.31;52.55;100225.06;5055862;28;20844;-90
2022/09/11 09:22:33;;;;;;;27.95;4.85;;;;;;;27.43;51.13;100225.94;5054722;28;20021;-94
2022/09/11 09:25:04;;;;;;;7.68;3.22;;;;;;;27.60;50.60;100217.69;5054881;28;20033;-88
2022/09/11 09:27:34;;;;;;;10.07;3.28;;;;;;;27.83;49.27;100223.13;5055672;28;20399;-87
2022/09/11 09:30:04;;;;;;;3.65;2.50;;;;;;;27.77;49.00;100197.31;5056749;28;20039;-88
2022/09/11 09:32:44;;;;;;;6.78;2.38;;;;;;;27.90;47.86;100201.69;5055616;28;20032;-88
2022/09/11 09:35:17;;;;;;;7.53;2.40;;;;;;;28.07;47.42;100217.25;5055341;28;20028;-87
2022/09/11 09:37:42;;;;;;;8.23;2.28;;;;;;;28.11;47.06;100206.53;5055044;28;20486;-89
2022/09/11 09:40:09;;;;;;;4.55;2.58;;;;;;;28.28;47.01;100210.19;5054071;28;20021;-88
2022/09/11 09:43:02;;;;;;;7.85;2.50;;;;;;;28.40;46.36;100224.78;5055587;28;20025;-88
2022/09/11 09:46:03;;;;;;;4.75;2.50;;;;;;;28.42;45.59;100216.19;5055530;28;20096;-89
2022/09/11 09:48:32;;;;;;;9.77;2.58;;;;;;;28.48;46.25;100216.03;5053327;28;20020;-88
2022/09/11 09:50:58;;;;;;;7.63;1.65;;;;;;;28.39;44.82;100189.03;5055931;28;20033;-89
2022/09/11 09:53:35;;;;;;;9.55;2.50;;;;;;;28.53;44.12;100216.13;5054907;28;20024;-89
2022/09/11 09:56:05;;;;;;;6.57;2.10;;;;;;;28.48;44.04;100201.34;5055854;28;20088;-89
2022/09/11 09:58:35;;;;;;;20.08;4.20;;;;;;;28.43;44.21;100190.22;5055186;28;20455;-87
2022/09/11 10:01:01;;;;;;;10.90;3.15;;;;;;;28.49;44.66;100189.22;5054471;28;20116;-88
2022/09/11 10:03:26;;;;;;;5.03;1.95;;;;;;;28.55;43.75;100180.75;5052828;28;20060;-88
2022/09/11 10:05:53;;;;;;;12.77;2.42;;;;;;;28.63;44.01;100173.94;5055177;28;20028;-89
2022/09/11 10:08:35;;;;;;;7.65;1.67;;;;;;;28.86;42.82;100201.44;5054761;28;20034;-89
2022/09/11 10:11:06;;;;;;;5.80;2.00;;;;;;;28.94;42.62;100198.22;5053183;28;20139;-89
2022/09/11 10:13:35;;;;;;;6.43;1.90;;;;;;;28.82;42.04;100171.75;5053208;28;20056;-89
2022/09/11 10:16:03;;;;;;;7.05;1.40;;;;;;;28.94;42.33;100186.31;5052834;28;20402;-89
2022/09/11 10:18:32;;;;;;;2.85;1.63;;;;;;;28.97;41.35;100189.41;5053183;28;20032;-90
2022/09/11 10:21:12;;;;;;;5.00;1.52;;;;;;;29.03;41.09;100191.16;5053794;28;20524;-89
2022/09/11 10:24:01;;;;;;;3.92;1.40;;;;;;;28.94;40.52;100165.00;5054475;28;20487;-87
2022/09/11 10:26:34;;;;;;;11.40;1.70;;;;;;;29.14;39.96;100187.41;5053078;28;20115;-89
2022/09/11 10:29:18;;;;;;;7.15;1.92;;;;;;;29.22;40.07;100180.59;5053925;28;20099;-88
2022/09/11 10:31:56;;;;;;;4.63;1.60;;;;;;;29.16;40.03;100157.56;5053854;28;20029;-88
2022/09/11 10:34:26;;;;;;;5.55;1.65;;;;;;;29.35;39.34;100166.41;5054155;28;20024;-89
2022/09/11 10:37:06;;;;;;;6.63;1.30;;;;;;;29.43;39.49;100151.25;5052414;28;20029;-88
2022/09/11 10:39:35;;;;;;;6.30;1.67;;;;;;;29.65;39.01;100154.81;5053849;28;20029;-89
2022/09/11 10:42:09;;;;;;;2.70;1.60;;;;;;;29.78;37.61;100164.66;5051850;28;20031;-88
2022/09/11 10:44:35;;;;;;;3.08;1.48;;;;;;;29.89;37.34;100164.53;5052565;28;20039;-88
2022/09/11 10:47:21;;;;;;;1.40;1.15;;;;;;;29.98;37.05;100164.88;5052516;28;20473;-88
2022/09/11 10:49:47;;;;;;;3.20;1.70;;;;;;;29.99;37.07;100150.78;5051546;28;20033;-89
2022/09/11 10:52:13;;;;;;;4.85;1.25;;;;;;;30.15;36.54;100149.78;5053853;28;20086;-88
2022/09/11 10:54:53;;;;;;;1.75;1.20;;;;;;;30.07;35.88;100149.44;5054674;28;20032;-87
2022/09/11 10:57:32;;;;;;;7.50;1.77;;;;;;;30.08;35.37;100143.63;5053777;28;20028;-87
2022/09/11 11:00:13;;;;;;;15.60;2.03;;;;;;;30.12;34.87;100143.94;5054220;28;20036;-86
2022/09/11 11:02:43;;;;;;;2.97;1.40;;;;;;;30.14;35.06;100148.13;5053835;28;20037;-88
2022/09/11 11:05:29;;;;;;;4.82;0.90;;;;;;;30.27;34.36;100151.56;5053485;28;20255;-88
2022/09/11 11:08:22;;;;;;;1.25;1.15;;;;;;;30.30;34.23;100134.38;5054098;28;20051;-88
2022/09/11 11:11:12;;;;;;;1.88;1.23;;;;;;;30.07;34.09;100122.53;5057558;28;20032;-87
2022/09/11 11:13:41;;;;;;;4.20;1.35;;;;;;;30.04;34.70;100142.47;5056302;28;20045;-87
2022/09/11 11:16:09;;;;;;;6.72;1.30;;;;;;;29.97;35.11;100157.66;5057663;28;20486;-88
2022/09/11 11:18:47;;;;;;;8.43;1.10;;;;;;;29.94;34.77;100142.38;5056586;28;20036;-89
2022/09/11 11:21:36;;;;;;;6.88;1.30;;;;;;;29.95;34.52;100144.06;5056456;28;20029;-88
2022/09/11 11:24:32;;;;;;;2.15;1.13;;;;;;;30.00;34.32;100143.28;5058645;28;20052;-87
2022/09/11 11:27:36;;;;;;;5.88;1.35;;;;;;;29.93;34.34;100146.28;5056507;28;20028;-87
2022/09/11 11:30:11;;;;;;;5.28;1.00;;;;;;;29.90;33.94;100138.47;5042585;28;20039;-88